Time;durP1;ratioP1;P1;durP2;ratioP2;P2;SDS_P1;SDS_P2;PMS_P1;PMS_P2;Temp;Humidity;BMP_temperature;BMP_pressure;BME280_temperature;BME280_humidity;BME280_pressure;Samples;Min_cycle;Max_cycle;Signal;HPM_P1;HPM_P2
2024/01/21 00:01:42;;;;;;;0.20;0.20;;;;;;;0.45;77.19;102893.34;5016365;28;20028;-90
2024/01/21 00:04:08;;;;;;;0.20;0.20;;;;;;;0.46;77.69;102895.06;5015933;28;20030;-89
2024/01/21 00:06:34;;;;;;;0.10;0.10;;;;;;;0.53;77.82;102909.69;5000016;28;20481;-90
2024/01/21 00:09:00;;;;;;;0.20;0.20;;;;;;;0.51;77.36;102907.13;4999840;28;20033;-90
2024/01/21 00:11:25;;;;;;;0.20;0.20;;;;;;;0.46;77.08;102902.69;5015849;28;20075;-89
2024/01/21 00:13:53;;;;;;;0.20;0.20;;;;;;;0.50;77.33;102899.44;4999849;28;20092;-88
2024/01/21 00:16:19;;;;;;;0.20;0.20;;;;;;;0.55;76.73;102898.72;4999367;28;20069;-89
2024/01/21 00:18:44;;;;;;;0.20;0.20;;;;;;;0.54;77.02;102911.44;5015624;28;20111;-90
2024/01/21 00:21:10;;;;;;;0.20;0.20;;;;;;;0.33;76.78;102880.25;4999376;28;20041;-90
2024/01/21 00:23:36;;;;;;;0.20;0.20;;;;;;;0.47;76.59;102909.50;4999354;28;20041;-90
2024/01/21 00:26:01;;;;;;;0.20;0.20;;;;;;;0.28;76.66;102887.75;5015610;28;20026;-91
2024/01/21 00:28:27;;;;;;;0.20;0.20;;;;;;;0.34;76.72;102895.56;4999696;28;20037;-92
2024/01/21 00:30:53;;;;;;;0.20;0.20;;;;;;;0.40;76.52;102913.59;5015804;28;20558;-89
2024/01/21 00:33:20;;;;;;;0.20;0.20;;;;;;;0.40;75.90;102917.81;5000337;28;20040;-90
2024/01/21 00:35:45;;;;;;;0.20;0.20;;;;;;;0.28;76.14;102910.66;4999843;28;20021;-89
2024/01/21 00:38:11;;;;;;;0.20;0.20;;;;;;;0.32;76.25;102924.34;5015436;28;20476;-89
2024/01/21 00:40:37;;;;;;;0.20;0.20;;;;;;;0.18;76.82;102912.06;5014842;28;20462;-91
2024/01/21 00:43:03;;;;;;;0.20;0.20;;;;;;;0.30;76.55;102913.28;5032895;28;20033;-89
2024/01/21 00:45:28;;;;;;;0.10;0.10;;;;;;;0.30;76.42;102924.31;5032955;28;20029;-90
2024/01/21 00:47:54;;;;;;;0.20;0.20;;;;;;;0.33;76.24;102924.41;5015317;28;20108;-91
2024/01/21 00:50:20;;;;;;;0.20;0.20;;;;;;;0.17;76.14;102899.28;4998891;28;20116;-91
2024/01/21 00:52:45;;;;;;;0.20;0.20;;;;;;;0.33;75.93;102916.75;4998885;28;20116;-90
2024/01/21 00:55:11;;;;;;;0.20;0.20;;;;;;;0.33;75.72;102915.91;5032389;28;20029;-89
2024/01/21 00:57:36;;;;;;;0.10;0.10;;;;;;;0.24;75.37;102917.34;5015232;28;20570;-90
2024/01/21 01:00:02;;;;;;;0.10;0.10;;;;;;;0.26;75.53;102920.78;5015061;28;20025;-87
2024/01/21 01:02:28;;;;;;;0.10;0.10;;;;;;;0.23;75.36;102922.41;5015018;28;20094;-90
2024/01/21 01:04:53;;;;;;;0.20;0.20;;;;;;;0.22;75.67;102919.00;4998744;28;20029;-89
2024/01/21 01:07:19;;;;;;;0.20;0.20;;;;;;;0.16;75.63;102906.06;4998793;28;20032;-89
2024/01/21 01:09:44;;;;;;;0.20;0.20;;;;;;;0.12;75.78;102911.88;5014260;28;20075;-89
2024/01/21 01:12:10;;;;;;;0.10;0.10;;;;;;;-0.04;75.86;102899.50;4998041;28;20029;-91
2024/01/21 01:14:38;;;;;;;0.20;0.20;;;;;;;0.04;76.01;102912.47;5014313;28;20069;-89
2024/01/21 01:17:03;;;;;;;0.10;0.10;;;;;;;0.10;76.02;102923.72;5014041;28;20558;-88
2024/01/21 01:19:29;;;;;;;0.10;0.10;;;;;;;0.07;75.37;102910.00;5014656;28;20163;-88
2024/01/21 01:21:55;;;;;;;0.20;0.20;;;;;;;0.02;75.56;102919.19;4998092;28;20183;-89
2024/01/21 01:24:21;;;;;;;0.20;0.20;;;;;;;-0.02;75.79;102903.81;4997962;28;20095;-89
2024/01/21 01:26:46;;;;;;;0.20;0.20;;;;;;;0.06;75.69;102915.91;4997931;28;20439;-89
2024/01/21 01:29:12;;;;;;;0.20;0.20;;;;;;;0.10;75.69;102915.19;5014392;28;20030;-90
2024/01/21 01:31:37;;;;;;;0.20;0.20;;;;;;;0.08;75.28;102909.19;4998040;28;20479;-89
2024/01/21 01:34:03;;;;;;;0.20;0.20;;;;;;;0.01;75.40;102903.06;5032180;28;20032;-90
2024/01/21 01:36:28;;;;;;;0.10;0.10;;;;;;;0.03;75.45;102911.59;5031967;28;20029;-88
2024/01/21 01:38:54;;;;;;;0.10;0.10;;;;;;;-0.12;75.42;102893.31;5014032;28;20069;-88
2024/01/21 01:41:20;;;;;;;0.20;0.20;;;;;;;-0.06;75.62;102901.16;5014189;28;20068;-88
2024/01/21 01:43:45;;;;;;;0.20;0.20;;;;;;;-0.09;75.81;102911.22;5014377;28;20033;-89
2024/01/21 01:46:11;;;;;;;0.10;0.10;;;;;;;-0.18;76.10;102900.75;5014174;28;20034;-89
2024/01/21 01:48:36;;;;;;;0.20;0.20;;;;;;;-0.13;76.56;102909.41;5013943;28;20033;-89
2024/01/21 01:51:03;;;;;;;0.20;0.20;;;;;;;-0.17;76.38;102907.56;4997874;28;20060;-89
2024/01/21 01:53:29;;;;;;;0.20;0.20;;;;;;;-0.15;76.59;102901.72;5013678;28;20029;-89
2024/01/21 01:55:55;;;;;;;0.20;0.20;;;;;;;-0.18;76.47;102905.84;5014115;28;20502;-91
2024/01/21 01:58:38;;;;;;;0.10;0.10;;;;;;;-0.30;76.25;102888.50;5014236;28;20484;-90
2024/01/21 02:01:04;;;;;;;0.20;0.20;;;;;;;-0.22;76.47;102914.19;5016739;28;20021;-88
2024/01/21 02:03:29;;;;;;;0.20;0.20;;;;;;;-0.28;76.58;102914.00;4997397;28;20030;-91
2024/01/21 02:05:55;;;;;;;0.20;0.20;;;;;;;-0.29;77.03;102902.97;4997175;28;20026;-89
2024/01/21 02:08:20;;;;;;;0.10;0.10;;;;;;;-0.14;76.81;102925.47;5013782;28;20033;-90
2024/01/21 02:10:46;;;;;;;0.20;0.20;;;;;;;-0.06;76.13;102917.28;5014098;28;20036;-89
2024/01/21 02:13:12;;;;;;;0.20;0.20;;;;;;;-0.08;75.86;102918.03;5031139;28;20037;-89
2024/01/21 02:15:37;;;;;;;0.20;0.20;;;;;;;-0.07;75.64;102923.19;5013798;28;20025;-89
2024/01/21 02:18:03;;;;;;;0.20;0.20;;;;;;;-0.20;75.48;102912.56;5013598;28;20022;-88
2024/01/21 02:20:28;;;;;;;0.20;0.20;;;;;;;-0.14;75.74;102928.03;5012980;28;20045;-89
2024/01/21 02:22:57;;;;;;;0.20;0.20;;;;;;;-0.14;75.71;102923.78;5013754;28;20998;-87
2024/01/21 02:25:23;;;;;;;0.20;0.20;;;;;;;-0.27;75.46;102916.59;4981167;28;20037;-90
2024/01/21 02:27:48;;;;;;;0.20;0.20;;;;;;;-0.31;76.04;102930.00;5013893;28;20025;-89
2024/01/21 02:30:14;;;;;;;0.10;0.10;;;;;;;-0.31;76.23;102924.94;5013641;28;20064;-87
2024/01/21 02:32:40;;;;;;;0.20;0.20;;;;;;;-0.45;76.22;102901.59;5013570;28;20031;-89
2024/01/21 02:35:05;;;;;;;0.20;0.20;;;;;;;-0.43;76.23;102915.22;5013102;28;20036;-88
2024/01/21 02:37:31;;;;;;;0.20;0.20;;;;;;;-0.44;76.80;102918.59;4997032;28;20026;-89
2024/01/21 02:39:56;;;;;;;0.10;0.10;;;;;;;-0.45;76.74;102916.84;5031166;28;20044;-87
2024/01/21 02:42:22;;;;;;;0.20;0.20;;;;;;;-0.39;76.73;102908.56;4997119;28;20030;-89
2024/01/21 02:44:50;;;;;;;0.20;0.20;;;;;;;-0.48;76.11;102904.06;5013579;28;20420;-87
2024/01/21 02:47:15;;;;;;;0.20;0.20;;;;;;;-0.42;76.25;102899.16;4997500;28;20029;-89
2024/01/21 02:49:41;;;;;;;0.20;0.20;;;;;;;-0.37;75.90;102901.84;5013263;28;20388;-90
2024/01/21 02:52:06;;;;;;;0.20;0.20;;;;;;;-0.38;75.48;102908.63;5013501;28;20025;-89
2024/01/21 02:54:32;;;;;;;0.20;0.20;;;;;;;-0.40;75.38;102924.63;5013421;28;20036;-90
2024/01/21 02:56:58;;;;;;;0.20;0.20;;;;;;;-0.54;75.35;102905.53;4980990;28;20045;-88
2024/01/21 02:59:23;;;;;;;0.20;0.20;;;;;;;-0.55;75.73;102922.44;4981821;28;20034;-89
2024/01/21 03:01:49;;;;;;;0.20;0.20;;;;;;;-0.62;75.71;102905.25;5000857;28;20065;-89
2024/01/21 03:04:14;;;;;;;0.20;0.20;;;;;;;-0.52;75.68;102920.00;5000121;28;20034;-88
2024/01/21 03:06:40;;;;;;;0.20;0.20;;;;;;;-0.63;75.79;102901.00;5000515;28;20033;-90
2024/01/21 03:09:06;;;;;;;0.20;0.20;;;;;;;-0.57;75.63;102924.09;5000849;28;20411;-92
2024/01/21 03:11:32;;;;;;;0.20;0.20;;;;;;;-0.69;75.86;102906.75;5000774;28;20037;-87
2024/01/21 03:13:57;;;;;;;0.20;0.20;;;;;;;-0.63;75.99;102922.19;5016808;28;20040;-88
2024/01/21 03:16:23;;;;;;;0.20;0.20;;;;;;;-0.66;75.63;102916.16;5016895;28;20033;-89
2024/01/21 03:18:48;;;;;;;0.20;0.20;;;;;;;-0.82;75.37;102884.25;5016610;28;20032;-89
2024/01/21 03:21:14;;;;;;;0.20;0.20;;;;;;;-0.65;75.38;102917.88;5034437;28;20099;-88
2024/01/21 03:23:39;;;;;;;0.10;0.10;;;;;;;-0.57;74.76;102926.63;5016916;28;20025;-90
2024/01/21 03:26:05;;;;;;;0.20;0.20;;;;;;;-0.57;74.38;102920.69;5016790;28;20077;-88
2024/01/21 03:28:30;;;;;;;0.10;0.10;;;;;;;-0.54;74.52;102931.81;5000418;28;20030;-88
2024/01/21 03:30:56;;;;;;;0.10;0.10;;;;;;;-0.50;74.19;102936.16;5000215;28;20053;-89
2024/01/21 03:33:22;;;;;;;0.20;0.20;;;;;;;-0.64;73.75;102924.69;4999899;28;20025;-88
2024/01/21 03:35:47;;;;;;;0.20;0.20;;;;;;;-0.73;74.07;102911.66;5016528;28;20192;-87
2024/01/21 03:38:13;;;;;;;0.10;0.10;;;;;;;-0.59;73.83;102928.22;5016118;28;20029;-89
2024/01/21 03:40:39;;;;;;;0.20;0.20;;;;;;;-0.66;73.43;102916.16;4983398;28;20438;-87
2024/01/21 03:43:04;;;;;;;0.10;0.10;;;;;;;-0.64;73.31;102924.69;5016292;28;20025;-89
2024/01/21 03:45:30;;;;;;;0.15;0.15;;;;;;;-0.63;73.05;102937.44;4999928;28;20384;-89
2024/01/21 03:47:55;;;;;;;0.20;0.20;;;;;;;-0.72;73.22;102932.03;4999675;28;20423;-89
2024/01/21 03:50:21;;;;;;;0.20;0.20;;;;;;;-0.72;73.45;102932.03;5000047;28;20483;-90
2024/01/21 03:52:49;;;;;;;0.20;0.20;;;;;;;-0.79;73.64;102924.16;4983390;28;20499;-88
2024/01/21 03:55:15;;;;;;;0.10;0.10;;;;;;;-0.90;73.22;102899.22;5033715;28;20032;-91
2024/01/21 03:57:41;;;;;;;0.20;0.20;;;;;;;-0.82;73.33;102913.88;5016310;28;20057;-89
2024/01/21 04:00:08;;;;;;;0.20;0.20;;;;;;;-0.82;73.38;102924.06;5015879;28;20060;-89
2024/01/21 04:02:35;;;;;;;0.20;0.20;;;;;;;-0.89;73.23;102911.13;5016021;28;20029;-90
2024/01/21 04:05:00;;;;;;;0.10;0.10;;;;;;;-0.91;73.42;102915.28;5016525;28;20029;-88
2024/01/21 04:07:26;;;;;;;0.20;0.20;;;;;;;-0.95;73.43;102888.06;5015906;28;20172;-90
2024/01/21 04:09:51;;;;;;;0.20;0.20;;;;;;;-0.76;73.01;102909.88;5015765;28;20030;-89
2024/01/21 04:12:17;;;;;;;0.20;0.20;;;;;;;-0.70;72.37;102919.38;4983242;28;20021;-89
2024/01/21 04:14:42;;;;;;;0.20;0.20;;;;;;;-0.69;72.18;102933.81;5015903;28;20025;-89
2024/01/21 04:17:09;;;;;;;0.20;0.20;;;;;;;-0.79;72.53;102935.19;5015246;28;20025;-89
2024/01/21 04:19:34;;;;;;;0.20;0.20;;;;;;;-0.90;73.00;102937.34;5015555;28;20048;-89
2024/01/21 04:22:00;;;;;;;0.10;0.10;;;;;;;-0.82;73.10;102939.31;5015113;28;20503;-89
2024/01/21 04:24:26;;;;;;;0.20;0.20;;;;;;;-0.88;73.21;102934.88;4982971;28;20025;-90
2024/01/21 04:26:51;;;;;;;0.10;0.10;;;;;;;-0.94;73.08;102940.59;4983022;28;20033;-88
2024/01/21 04:29:17;;;;;;;0.20;0.20;;;;;;;-1.00;73.21;102942.91;4999106;28;20038;-89
2024/01/21 04:31:43;;;;;;;0.10;0.10;;;;;;;-0.98;73.50;102946.41;4998676;28;20034;-88
2024/01/21 04:34:09;;;;;;;0.20;0.20;;;;;;;-0.99;73.81;102949.72;4998885;28;20037;-89
2024/01/21 04:36:35;;;;;;;0.20;0.20;;;;;;;-1.00;73.88;102942.91;5015296;28;20095;-88
2024/01/21 04:39:00;;;;;;;0.20;0.20;;;;;;;-1.20;72.80;102939.66;4999021;28;20030;-88
2024/01/21 04:41:26;;;;;;;0.20;0.20;;;;;;;-1.07;72.73;102943.53;5014895;28;20025;-89
2024/01/21 04:43:51;;;;;;;0.20;0.20;;;;;;;-1.11;73.24;102941.69;5014904;28;20064;-87
2024/01/21 04:46:17;;;;;;;0.20;0.20;;;;;;;-1.17;72.85;102937.25;4998500;28;20026;-89
2024/01/21 04:48:42;;;;;;;0.10;0.10;;;;;;;-1.11;72.32;102931.50;5014954;28;20036;-87
2024/01/21 04:51:08;;;;;;;0.13;0.13;;;;;;;-0.96;72.25;102941.38;4998663;28;20036;-89
2024/01/21 04:53:34;;;;;;;0.10;0.10;;;;;;;-1.05;71.33;102939.38;5015133;28;20021;-90
2024/01/21 04:55:59;;;;;;;0.20;0.20;;;;;;;-1.14;72.12;102950.88;4998559;28;20116;-89
2024/01/21 04:58:25;;;;;;;0.20;0.20;;;;;;;-1.24;72.36;102944.59;5014896;28;20029;-88
2024/01/21 05:00:50;;;;;;;0.20;0.20;;;;;;;-1.13;72.08;102953.47;4998351;28;20126;-89
2024/01/21 05:03:16;;;;;;;0.20;0.20;;;;;;;-1.25;72.27;102953.03;5014890;28;20033;-89
2024/01/21 05:05:41;;;;;;;0.20;0.20;;;;;;;-1.25;72.27;102963.19;5014805;28;20033;-89
2024/01/21 05:08:07;;;;;;;0.10;0.10;;;;;;;-1.32;72.81;102964.63;4998472;28;20032;-90
2024/01/21 05:10:33;;;;;;;0.20;0.20;;;;;;;-1.20;72.19;102964.19;4998620;28;20040;-89
2024/01/21 05:12:59;;;;;;;0.20;0.20;;;;;;;-1.23;72.53;102961.56;4998643;28;20080;-88
2024/01/21 05:15:24;;;;;;;0.20;0.20;;;;;;;-1.16;72.18;102972.00;5014378;28;20025;-88
2024/01/21 05:17:50;;;;;;;0.10;0.10;;;;;;;-1.10;72.01;102968.81;5014718;28;20026;-89
2024/01/21 05:20:16;;;;;;;0.10;0.10;;;;;;;-1.12;71.74;102970.44;5014283;28;20049;-88
2024/01/21 05:22:41;;;;;;;0.20;0.20;;;;;;;-1.28;71.65;102961.41;4997775;28;20033;-89
2024/01/21 05:25:07;;;;;;;0.20;0.20;;;;;;;-1.20;71.72;102972.69;5031738;28;20448;-88
2024/01/21 05:27:32;;;;;;;0.10;0.10;;;;;;;-1.34;71.69;102962.84;4997779;28;20061;-89
2024/01/21 05:29:58;;;;;;;0.20;0.20;;;;;;;-1.34;71.87;102967.91;4997423;28;20067;-88
2024/01/21 05:32:23;;;;;;;0.10;0.10;;;;;;;-1.34;72.33;102963.69;5031420;28;20518;-87
2024/01/21 05:34:49;;;;;;;0.20;0.20;;;;;;;-1.25;71.82;102969.13;4997962;28;20491;-89
2024/01/21 05:37:15;;;;;;;0.10;0.10;;;;;;;-1.24;72.53;102970.00;5014278;28;20059;-88
2024/01/21 05:39:40;;;;;;;0.10;0.10;;;;;;;-1.27;72.29;102980.91;5031643;28;20025;-88
2024/01/21 05:42:07;;;;;;;0.10;0.10;;;;;;;-1.27;72.28;102977.50;5013533;28;20029;-88
2024/01/21 05:44:33;;;;;;;0.20;0.20;;;;;;;-1.34;72.23;102978.06;4997802;28;20044;-88
2024/01/21 05:46:58;;;;;;;0.20;0.20;;;;;;;-1.37;72.45;102988.13;4997793;28;20033;-88
2024/01/21 05:49:24;;;;;;;0.15;0.15;;;;;;;-1.45;72.90;102987.84;4997632;28;20033;-89
2024/01/21 05:51:50;;;;;;;0.20;0.20;;;;;;;-1.46;73.07;102989.50;4997556;28;20120;-89
2024/01/21 05:54:16;;;;;;;0.10;0.10;;;;;;;-1.45;73.04;102991.22;4997535;28;20029;-88
2024/01/21 05:56:41;;;;;;;0.10;0.10;;;;;;;-1.42;72.92;102989.63;4997900;28;20025;-89
2024/01/21 05:59:07;;;;;;;0.20;0.20;;;;;;;-1.39;73.01;102979.56;4997214;28;20128;-89
2024/01/21 06:01:32;;;;;;;0.20;0.20;;;;;;;-1.26;72.73;102991.94;5014064;28;20487;-88
2024/01/21 06:03:58;;;;;;;0.20;0.20;;;;;;;-1.34;72.85;103003.47;4981465;28;20033;-89
2024/01/21 06:06:23;;;;;;;0.20;0.20;;;;;;;-1.29;72.35;103007.91;5013803;28;20025;-89
2024/01/21 06:08:49;;;;;;;0.20;0.20;;;;;;;-1.38;72.28;103014.31;5013883;28;20044;-88
2024/01/21 06:11:14;;;;;;;0.20;0.20;;;;;;;-1.49;72.95;103004.59;5013872;28;20029;-91
2024/01/21 06:13:40;;;;;;;0.20;0.20;;;;;;;-1.46;73.18;103014.91;4997440;28;20129;-90
2024/01/21 06:16:06;;;;;;;0.10;0.10;;;;;;;-1.59;73.03;102989.81;5013832;28;20026;-89
2024/01/21 06:18:31;;;;;;;0.20;0.20;;;;;;;-1.39;73.41;103015.97;5030962;28;20030;-90
2024/01/21 06:20:57;;;;;;;0.10;0.10;;;;;;;-1.36;73.20;103015.25;4996939;28;20107;-89
2024/01/21 06:23:22;;;;;;;0.20;0.20;;;;;;;-1.39;73.02;103015.09;4997536;28;20033;-90
2024/01/21 06:25:48;;;;;;;0.10;0.10;;;;;;;-1.33;72.79;103025.50;4997718;28;20037;-90
2024/01/21 06:28:14;;;;;;;0.20;0.20;;;;;;;-1.41;73.04;103006.56;5013623;28;20038;-91
2024/01/21 06:30:40;;;;;;;0.20;0.20;;;;;;;-1.29;72.56;103024.81;5013911;28;20557;-90
2024/01/21 06:33:05;;;;;;;0.10;0.10;;;;;;;-1.31;71.46;103027.28;5014137;28;20415;-88
2024/01/21 06:35:31;;;;;;;0.20;0.20;;;;;;;-1.27;71.91;103010.53;5001480;28;20029;-89
2024/01/21 06:37:57;;;;;;;0.20;0.20;;;;;;;-1.24;71.03;103021.66;5017742;28;20029;-90
2024/01/21 06:40:22;;;;;;;0.20;0.20;;;;;;;-1.25;71.21;103030.09;5001401;28;20031;-89
2024/01/21 06:42:48;;;;;;;0.20;0.20;;;;;;;-1.34;70.56;102983.16;5001143;28;20029;-90
2024/01/21 06:45:13;;;;;;;0.10;0.10;;;;;;;-1.15;71.75;103031.28;5017954;28;20454;-91
2024/01/21 06:47:40;;;;;;;0.20;0.20;;;;;;;-1.05;72.00;103035.91;4985052;28;20025;-89
2024/01/21 06:50:06;;;;;;;0.10;0.10;;;;;;;-1.02;72.18;103028.38;5001169;28;20037;-89
2024/01/21 06:52:31;;;;;;;0.20;0.20;;;;;;;-1.02;72.08;103028.38;5001027;28;20071;-88
2024/01/21 06:54:57;;;;;;;0.20;0.20;;;;;;;-1.15;71.62;103036.38;5017226;28;20120;-88
2024/01/21 06:57:22;;;;;;;0.20;0.20;;;;;;;-1.24;71.41;103038.56;5000811;28;20029;-89
2024/01/21 06:59:49;;;;;;;0.20;0.20;;;;;;;-1.28;70.60;103047.75;5000980;28;20037;-89
2024/01/21 07:02:14;;;;;;;0.10;0.10;;;;;;;-1.19;70.45;103040.44;5001345;28;20029;-91
2024/01/21 07:04:40;;;;;;;0.20;0.20;;;;;;;-1.22;69.78;103045.44;5017540;28;20033;-88
2024/01/21 07:07:05;;;;;;;0.20;0.20;;;;;;;-1.19;69.91;103054.81;5000706;28;20029;-90
2024/01/21 07:09:31;;;;;;;0.20;0.20;;;;;;;-1.16;69.66;103060.03;4984631;28;20088;-90
2024/01/21 07:11:56;;;;;;;0.20;0.20;;;;;;;-1.11;70.57;103061.06;4984557;28;20034;-89
2024/01/21 07:14:22;;;;;;;0.20;0.20;;;;;;;-1.12;70.37;103069.50;5017082;28;20034;-90
2024/01/21 07:16:48;;;;;;;0.20;0.20;;;;;;;-1.10;70.42;103065.34;5000887;28;20025;-90
2024/01/21 07:19:14;;;;;;;0.20;0.20;;;;;;;-1.08;69.83;103056.13;5016741;28;20029;-90
2024/01/21 07:21:40;;;;;;;0.20;0.20;;;;;;;-1.08;70.33;103055.22;5016933;28;20049;-90
2024/01/21 07:24:06;;;;;;;0.20;0.20;;;;;;;-1.01;70.55;103064.81;5016947;28;20056;-89
2024/01/21 07:26:31;;;;;;;0.10;0.10;;;;;;;-0.92;70.25;103055.88;5016552;28;20022;-89
2024/01/21 07:28:57;;;;;;;0.10;0.10;;;;;;;-0.90;70.75;103059.31;5000286;28;20030;-89
2024/01/21 07:31:23;;;;;;;0.20;0.20;;;;;;;-0.75;71.09;103056.50;5034267;28;20033;-90
2024/01/21 07:33:48;;;;;;;0.20;0.20;;;;;;;-0.89;70.95;103038.19;5000412;28;20025;-90
2024/01/21 07:36:14;;;;;;;0.20;0.20;;;;;;;-0.87;71.06;103020.47;5016653;28;20029;-89
2024/01/21 07:38:39;;;;;;;0.20;0.20;;;;;;;-0.64;70.64;103067.06;5016654;28;20408;-90
2024/01/21 07:41:05;;;;;;;0.20;0.20;;;;;;;-0.57;70.47;103063.94;5016225;28;20030;-88
2024/01/21 07:43:30;;;;;;;0.20;0.20;;;;;;;-0.42;70.45;103077.16;5016604;28;20030;-89
2024/01/21 07:45:56;;;;;;;0.20;0.20;;;;;;;-0.35;70.11;103079.13;4999469;28;20132;-90
2024/01/21 07:48:21;;;;;;;0.20;0.20;;;;;;;-0.28;70.12;103066.63;5000059;28;20447;-89
2024/01/21 07:50:48;;;;;;;0.20;0.20;;;;;;;-0.30;70.30;103064.88;5016399;28;20407;-89
2024/01/21 07:53:14;;;;;;;0.20;0.20;;;;;;;-0.12;70.69;103073.97;5000123;28;20491;-89
2024/01/21 07:55:39;;;;;;;0.15;0.15;;;;;;;0.03;69.97;103077.03;5015999;28;20028;-89
2024/01/21 07:58:05;;;;;;;0.20;0.20;;;;;;;-0.18;69.13;103033.06;4999773;28;20040;-88
2024/01/21 08:00:31;;;;;;;0.10;0.10;;;;;;;0.13;69.89;103076.53;5033530;28;20021;-89
2024/01/21 08:02:56;;;;;;;0.20;0.20;;;;;;;0.17;68.97;103067.28;5016415;28;20454;-90
2024/01/21 08:05:22;;;;;;;0.10;0.10;;;;;;;0.35;69.61;103083.19;5016102;28;20036;-88
2024/01/21 08:07:47;;;;;;;0.20;0.20;;;;;;;0.36;68.34;103081.50;5016251;28;20041;-89
2024/01/21 08:10:13;;;;;;;0.20;0.20;;;;;;;0.47;69.66;103080.16;4999397;28;20049;-88
2024/01/21 08:12:38;;;;;;;0.20;0.20;;;;;;;0.49;68.75;103073.41;4983495;28;20084;-89
2024/01/21 08:15:05;;;;;;;0.20;0.20;;;;;;;0.60;68.05;103077.19;4999690;28;20029;-89
2024/01/21 08:17:30;;;;;;;0.20;0.20;;;;;;;0.62;67.14;103083.19;4999477;28;20053;-92
2024/01/21 08:19:56;;;;;;;0.20;0.20;;;;;;;0.63;67.38;103082.38;4982729;28;20034;-89
2024/01/21 08:22:21;;;;;;;0.10;0.10;;;;;;;0.59;67.39;103085.66;4999392;28;20421;-89
2024/01/21 08:24:52;;;;;;;0.20;0.20;;;;;;;0.80;66.67;103093.09;5033260;28;20403;-88
2024/01/21 08:27:18;;;;;;;0.20;0.20;;;;;;;0.72;65.54;103089.44;5000877;28;20499;-90
2024/01/21 08:29:44;;;;;;;0.20;0.20;;;;;;;0.80;65.27;103098.19;5015809;28;20060;-90
2024/01/21 08:32:09;;;;;;;0.20;0.20;;;;;;;0.92;66.50;103100.25;5015493;28;20064;-89
2024/01/21 08:34:35;;;;;;;0.20;0.20;;;;;;;1.09;65.42;103101.63;5015474;28;20025;-89
2024/01/21 08:37:01;;;;;;;0.10;0.10;;;;;;;1.06;64.53;103092.16;4999627;28;20025;-90
2024/01/21 08:39:27;;;;;;;0.10;0.10;;;;;;;1.20;65.99;103107.91;4982652;28;20025;-90
2024/01/21 08:41:52;;;;;;;0.20;0.20;;;;;;;1.19;64.61;103090.88;4999237;28;20053;-91
2024/01/21 08:44:18;;;;;;;0.20;0.20;;;;;;;1.32;64.71;103103.13;4999123;28;20029;-90
2024/01/21 08:46:46;;;;;;;0.20;0.20;;;;;;;1.41;65.08;103100.84;4999091;28;20033;-91
2024/01/21 08:49:12;;;;;;;0.20;0.20;;;;;;;1.35;64.10;103107.47;4999024;28;20022;-91
2024/01/21 08:51:38;;;;;;;0.20;0.20;;;;;;;1.39;63.16;103105.06;4998975;28;20068;-92
2024/01/21 08:54:03;;;;;;;0.20;0.20;;;;;;;1.47;64.05;103100.16;4998563;28;20112;-89
2024/01/21 08:56:29;;;;;;;0.20;0.20;;;;;;;1.32;63.27;103100.59;4998474;28;20037;-88
2024/01/21 08:58:54;;;;;;;0.20;0.20;;;;;;;1.38;62.89;103110.97;4999372;28;20040;-90
2024/01/21 09:01:20;;;;;;;0.20;0.20;;;;;;;1.53;62.93;103109.66;5015354;28;20052;-90
2024/01/21 09:03:46;;;;;;;0.20;0.20;;;;;;;1.54;62.64;103096.09;5016436;28;20068;-90
2024/01/21 09:06:11;;;;;;;0.20;0.20;;;;;;;1.69;63.28;103097.38;4998685;28;20091;-90
2024/01/21 09:08:37;;;;;;;0.20;0.20;;;;;;;1.80;61.82;103104.47;4998728;28;20025;-89
2024/01/21 09:11:03;;;;;;;0.20;0.20;;;;;;;1.92;61.10;103105.66;4998569;28;20075;-89
2024/01/21 09:13:28;;;;;;;0.20;0.20;;;;;;;1.84;60.56;103073.94;5015007;28;20423;-90
2024/01/21 09:15:55;;;;;;;0.20;0.20;;;;;;;2.17;60.78;103103.75;5032580;28;20079;-90
2024/01/21 09:18:20;;;;;;;0.20;0.20;;;;;;;2.21;61.52;103100.41;4998079;28;20120;-90
2024/01/21 09:20:46;;;;;;;0.20;0.20;;;;;;;2.32;61.96;103099.00;5014611;28;20148;-91
2024/01/21 09:23:12;;;;;;;0.20;0.20;;;;;;;2.52;61.34;103100.34;5014685;28;20025;-92
2024/01/21 09:25:37;;;;;;;0.20;0.20;;;;;;;2.38;59.23;103070.19;5014784;28;20121;-92
2024/01/21 09:28:05;;;;;;;0.20;0.20;;;;;;;2.58;58.77;103091.97;5032125;28;20479;-90
2024/01/21 09:30:31;;;;;;;0.20;0.20;;;;;;;2.74;59.00;103090.59;4998455;28;20040;-89
2024/01/21 09:32:56;;;;;;;0.20;0.20;;;;;;;2.73;57.99;103087.19;4981919;28;20048;-91
2024/01/21 09:35:22;;;;;;;0.10;0.10;;;;;;;2.59;57.77;103086.88;4997806;28;20061;-90
2024/01/21 09:37:47;;;;;;;0.20;0.20;;;;;;;2.63;57.42;103080.13;5013768;28;20060;-90
2024/01/21 09:40:13;;;;;;;0.20;0.20;;;;;;;2.61;58.63;103060.50;5014579;28;20033;-91
2024/01/21 09:42:39;;;;;;;0.20;0.20;;;;;;;2.79;58.71;103083.91;4997683;28;20033;-89
2024/01/21 09:45:05;;;;;;;0.20;0.20;;;;;;;2.51;58.33;103055.19;4981681;28;20559;-89
2024/01/21 09:47:30;;;;;;;0.20;0.20;;;;;;;2.67;58.46;103070.88;4998177;28;20033;-92
2024/01/21 09:49:56;;;;;;;0.20;0.20;;;;;;;2.81;58.53;103072.88;4997628;28;20025;-90
2024/01/21 09:52:22;;;;;;;0.20;0.20;;;;;;;2.85;57.49;103054.25;4998158;28;20448;-92
2024/01/21 09:54:50;;;;;;;0.20;0.20;;;;;;;2.75;58.39;103052.31;5014321;28;20095;-91
2024/01/21 09:57:15;;;;;;;0.20;0.20;;;;;;;2.95;57.72;103078.31;5014657;28;20040;-88
2024/01/21 09:59:41;;;;;;;0.20;0.20;;;;;;;3.06;56.59;103069.19;4997717;28;20029;-90
2024/01/21 10:02:17;;;;;;;0.20;0.20;;;;;;;3.15;56.09;103064.25;5014082;28;20408;-89
2024/01/21 10:04:46;;;;;;;0.20;0.20;;;;;;;3.11;56.28;103056.47;4981588;28;20060;-91
2024/01/21 10:07:12;;;;;;;0.20;0.20;;;;;;;3.23;55.43;103060.97;4997947;28;20494;-91
2024/01/21 10:09:37;;;;;;;0.20;0.20;;;;;;;3.19;57.56;103061.75;5013906;28;20025;-91
2024/01/21 10:12:03;;;;;;;0.20;0.20;;;;;;;3.28;56.00;103060.25;4997809;28;20107;-91
2024/01/21 10:14:31;;;;;;;0.20;0.20;;;;;;;3.31;55.87;103044.09;4997700;28;20536;-90
2024/01/21 10:16:57;;;;;;;0.20;0.20;;;;;;;3.29;56.07;103046.63;4998340;28;20028;-90
2024/01/21 10:19:31;;;;;;;0.20;0.20;;;;;;;3.43;55.69;103052.00;5013629;28;20033;-89
2024/01/21 10:22:10;;;;;;;0.20;0.20;;;;;;;3.34;56.16;103044.13;5010374;28;20048;-91
2024/01/21 10:24:39;;;;;;;0.20;0.20;;;;;;;3.49;54.98;103053.81;4994922;28;20546;-90
2024/01/21 10:27:05;;;;;;;0.20;0.20;;;;;;;3.50;55.92;103051.28;4978101;28;20041;-88
2024/01/21 10:29:31;;;;;;;0.20;0.20;;;;;;;3.63;56.37;103048.13;4994550;28;20037;-88
2024/01/21 10:31:56;;;;;;;0.20;0.20;;;;;;;3.56;55.37;103036.06;5010518;28;20026;-90
2024/01/21 10:34:22;;;;;;;0.20;0.20;;;;;;;3.76;56.83;103051.78;4993923;28;20036;-90
2024/01/21 10:36:48;;;;;;;0.20;0.20;;;;;;;3.61;54.79;103044.66;5010479;28;20104;-89
2024/01/21 10:39:16;;;;;;;0.20;0.20;;;;;;;3.62;54.35;103025.06;4994113;28;20515;-91
2024/01/21 10:41:42;;;;;;;0.20;0.20;;;;;;;3.84;53.98;103047.66;4994447;28;20037;-91
2024/01/21 10:44:07;;;;;;;0.20;0.20;;;;;;;3.95;52.42;103042.72;4994143;28;20034;-88
2024/01/21 10:46:33;;;;;;;0.20;0.20;;;;;;;3.78;52.62;103018.53;4993899;28;20503;-90
2024/01/21 10:48:59;;;;;;;0.20;0.20;;;;;;;3.93;54.06;103037.59;4993869;28;20022;-90
2024/01/21 10:51:24;;;;;;;0.20;0.20;;;;;;;4.00;53.43;103028.28;5010489;28;20026;-90
2024/01/21 10:53:51;;;;;;;0.20;0.20;;;;;;;3.99;52.84;103027.41;4994101;28;20040;-93
2024/01/21 10:56:17;;;;;;;0.10;0.10;;;;;;;4.13;53.43;103027.66;4993709;28;20048;-89
2024/01/21 10:58:43;;;;;;;0.20;0.20;;;;;;;4.16;53.84;103034.53;5010360;28;20163;-90
2024/01/21 11:01:09;;;;;;;0.20;0.20;;;;;;;4.26;54.08;103027.00;4993926;28;20443;-91
2024/01/21 11:03:36;;;;;;;0.20;0.20;;;;;;;4.20;53.11;103020.91;4994010;28;20136;-90
2024/01/21 11:06:05;;;;;;;0.20;0.20;;;;;;;4.15;52.71;103004.63;4977872;28;20508;-90
2024/01/21 11:08:31;;;;;;;0.20;0.20;;;;;;;4.47;52.70;103023.03;5010310;28;20026;-90
2024/01/21 11:11:05;;;;;;;0.20;0.20;;;;;;;4.50;51.98;103025.63;4993990;28;20084;-88
2024/01/21 11:13:41;;;;;;;0.20;0.20;;;;;;;4.55;51.66;103034.28;4994497;28;20092;-90
2024/01/21 11:16:11;;;;;;;0.20;0.20;;;;;;;4.51;51.74;103006.84;5010238;28;20101;-91
2024/01/21 11:18:36;;;;;;;0.20;0.20;;;;;;;4.76;52.33;103026.00;5009659;28;20030;-89
2024/01/21 11:21:02;;;;;;;0.20;0.20;;;;;;;4.86;50.96;103026.16;5011564;28;20100;-90
2024/01/21 11:23:28;;;;;;;0.20;0.20;;;;;;;5.05;51.31;103021.25;5013860;28;20080;-91